createdAt,value
2018-02-14T00:01:57.513Z,95008
2018-02-14T00:07:25.743Z,95016
2018-02-14T00:12:53.912Z,95016
2018-02-14T00:18:22.936Z,95009
2018-02-14T00:23:51.096Z,95006
2018-02-14T00:29:19.234Z,95022
2018-02-14T00:34:47.378Z,95026
2018-02-14T00:40:15.529Z,95034
2018-02-14T00:45:44.460Z,95032
2018-02-14T00:51:12.608Z,95033
2018-02-14T00:56:40.753Z,95024
2018-02-14T01:02:08.913Z,95027
2018-02-14T01:07:37.085Z,95028
2018-02-14T01:13:05.262Z,95038
2018-02-14T01:18:38.972Z,95038
2018-02-14T01:24:07.142Z,95035
2018-02-14T01:29:36.070Z,95046
2018-02-14T01:35:05.040Z,95051
2018-02-14T01:40:33.208Z,95044
2018-02-14T01:46:01.444Z,95044
2018-02-14T01:51:30.684Z,95060
2018-02-14T01:56:59.631Z,95059
2018-02-14T02:02:28.541Z,95062
2018-02-14T02:07:56.885Z,95055
2018-02-14T02:13:25.057Z,95055
2018-02-14T02:18:53.202Z,95059
2018-02-14T02:24:21.373Z,95062
2018-02-14T02:29:49.513Z,95054
2018-02-14T02:35:17.703Z,95062
2018-02-14T02:40:46.619Z,95059
2018-02-14T02:46:14.773Z,95056
2018-02-14T02:51:42.936Z,95063
2018-02-14T02:57:11.105Z,95067
2018-02-14T03:02:39.260Z,95060
2018-02-14T03:08:07.445Z,95076
2018-02-14T03:13:35.616Z,95078
2018-02-14T03:19:03.776Z,95078
2018-02-14T03:24:32.681Z,95084
2018-02-14T03:30:01.104Z,95068
2018-02-14T03:35:30.048Z,95073
2018-02-14T03:40:58.200Z,95083
2018-02-14T03:46:27.120Z,95083
2018-02-14T03:51:55.280Z,95095
2018-02-14T03:57:23.458Z,95103
2018-02-14T04:02:52.605Z,95104
2018-02-14T04:08:20.735Z,95118
2018-02-14T04:13:49.655Z,95119
2018-02-14T04:19:18.079Z,95123
2018-02-14T04:24:46.245Z,95148
2018-02-14T04:30:19.448Z,95149
2018-02-14T04:35:48.368Z,95151
2018-02-14T04:41:16.511Z,95168
2018-02-14T04:46:45.451Z,95177
2018-02-14T04:52:14.435Z,95186
2018-02-14T04:57:43.354Z,95191
2018-02-14T05:03:11.536Z,95206
2018-02-14T05:08:39.925Z,95196
2018-02-14T05:14:08.102Z,95212
2018-02-14T05:19:39.909Z,95216
2018-02-14T05:25:08.052Z,95219
2018-02-14T05:30:36.259Z,95225
2018-02-14T05:36:04.427Z,95237
2018-02-14T05:41:32.617Z,95241
2018-02-14T05:47:00.760Z,95259
2018-02-14T05:52:29.063Z,95251
2018-02-14T05:57:57.477Z,95264
2018-02-14T06:03:25.706Z,95273
2018-02-14T06:08:53.846Z,95284
2018-02-14T06:14:22.001Z,95292
2018-02-14T06:19:50.924Z,95304
2018-02-14T06:25:19.084Z,95314
2018-02-14T06:30:47.223Z,95321
2018-02-14T06:36:15.374Z,95325
2018-02-14T06:41:43.543Z,95334
2018-02-14T06:47:11.687Z,95350
2018-02-14T06:52:39.860Z,95360
2018-02-14T06:58:08.992Z,95354
2018-02-14T07:03:37.161Z,95363
2018-02-14T07:09:05.332Z,95372
2018-02-14T07:14:34.278Z,95380
2018-02-14T07:20:03.283Z,95385
2018-02-14T07:25:31.477Z,95386
2018-02-14T07:30:59.631Z,95402
2018-02-14T07:36:27.770Z,95392
2018-02-14T07:41:56.689Z,95411
2018-02-14T07:47:24.826Z,95414
2018-02-14T07:52:52.981Z,95428
2018-02-14T07:58:21.344Z,95434
2018-02-14T08:03:49.490Z,95428
2018-02-14T08:09:17.631Z,95433
2018-02-14T08:14:45.779Z,95453
2018-02-14T08:20:13.916Z,95460
2018-02-14T08:25:42.066Z,95463
2018-02-14T08:31:10.215Z,95461
2018-02-14T08:36:38.390Z,95472
2018-02-14T08:42:06.590Z,95476
2018-02-14T08:47:34.746Z,95481
2018-02-14T08:53:03.015Z,95487
2018-02-14T08:58:31.173Z,95491
2018-02-14T09:03:59.333Z,95491
2018-02-14T09:09:27.469Z,95496
2018-02-14T09:14:55.607Z,95500
2018-02-14T09:20:23.759Z,95512
2018-02-14T09:25:51.903Z,95508
2018-02-14T09:31:20.865Z,95516
2018-02-14T09:36:49.001Z,95528
2018-02-14T09:42:17.142Z,95528
2018-02-14T09:47:45.320Z,95531
2018-02-14T09:53:13.438Z,95525
2018-02-14T09:58:41.600Z,95533
2018-02-14T10:04:09.754Z,95538
2018-02-14T10:09:38.683Z,95529
2018-02-14T10:15:06.872Z,95539
2018-02-14T10:20:35.035Z,95539
2018-02-14T10:26:03.942Z,95530
2018-02-14T10:31:32.075Z,95527
2018-02-14T10:37:00.224Z,95534
2018-02-14T10:42:28.365Z,95531
2018-02-14T10:47:56.506Z,95540
2018-02-14T10:53:24.652Z,95547
2018-02-14T10:58:52.795Z,95542
2018-02-14T11:04:22.890Z,95548
2018-02-14T11:09:51.030Z,95552
2018-02-14T11:15:19.144Z,95546
2018-02-14T11:20:47.309Z,95558
2018-02-14T11:26:15.459Z,95562
2018-02-14T11:31:43.729Z,95564
2018-02-14T11:37:11.887Z,95558
2018-02-14T11:42:40.787Z,95566
2018-02-14T11:48:08.931Z,95571
2018-02-14T11:53:37.851Z,95573
2018-02-14T11:59:05.986Z,95581
2018-02-14T12:04:34.150Z,95582
2018-02-14T12:10:02.303Z,95585
2018-02-14T12:15:30.450Z,95586
2018-02-14T12:20:59.352Z,95579
2018-02-14T12:26:27.516Z,95589
2018-02-14T12:31:56.419Z,95590
2018-02-14T12:37:24.552Z,95589
2018-02-14T12:42:52.678Z,95587
2018-02-14T12:48:21.572Z,95576
2018-02-14T12:53:49.714Z,95583
2018-02-14T12:59:17.853Z,95583
2018-02-14T13:04:46.058Z,95590
2018-02-14T13:10:14.200Z,95575
2018-02-14T13:15:43.100Z,95568
2018-02-14T13:21:11.221Z,95580
2018-02-14T13:26:39.378Z,95577
2018-02-14T13:32:08.282Z,95578
2018-02-14T13:37:36.417Z,95581
2018-02-14T13:43:04.558Z,95582
2018-02-14T13:48:34.204Z,95578
2018-02-14T13:54:03.138Z,95585
2018-02-14T13:59:31.286Z,95591
2018-02-14T14:05:00.295Z,95595
2018-02-14T14:10:29.207Z,95601
2018-02-14T14:15:57.365Z,95603
2018-02-14T14:21:26.288Z,95607
2018-02-14T14:26:54.453Z,95608
2018-02-14T14:32:22.594Z,95592
2018-02-14T14:37:50.751Z,95605
2018-02-14T14:43:18.907Z,95616
2018-02-14T14:48:47.054Z,95611
2018-02-14T14:54:15.204Z,95635
2018-02-14T14:59:44.125Z,95643
2018-02-14T15:05:12.266Z,95640
2018-02-14T15:10:40.412Z,95622
2018-02-14T15:16:08.711Z,95642
2018-02-14T15:21:37.629Z,95633
2018-02-14T15:27:05.829Z,95658
2018-02-14T15:32:33.971Z,95660
2018-02-14T15:38:02.131Z,95655
2018-02-14T15:43:32.174Z,95652
2018-02-14T15:49:01.106Z,95646
2018-02-14T15:54:30.024Z,95665
2018-02-14T15:59:58.187Z,95668
2018-02-14T16:05:27.070Z,95666
2018-02-14T16:10:55.200Z,95664
2018-02-14T16:16:23.343Z,95678
2018-02-14T16:21:51.466Z,95676
2018-02-14T16:27:20.374Z,95686
2018-02-14T16:32:48.523Z,95685
2018-02-14T16:38:17.438Z,95697
2018-02-14T16:43:45.596Z,95691
2018-02-14T16:49:13.777Z,95696
2018-02-14T16:54:41.935Z,95701
2018-02-14T17:00:10.852Z,95716
2018-02-14T17:05:39.022Z,95724
2018-02-14T17:11:07.233Z,95727
2018-02-14T17:16:35.436Z,95728
2018-02-14T17:22:03.620Z,95738
2018-02-14T17:27:31.797Z,95741
2018-02-14T17:32:59.985Z,95741
2018-02-14T17:38:28.929Z,95743
2018-02-14T17:43:57.076Z,95744
2018-02-14T17:49:25.213Z,95749
2018-02-14T17:54:53.376Z,95752
2018-02-14T18:00:21.564Z,95747
2018-02-14T18:05:50.167Z,95752
2018-02-14T18:11:18.327Z,95750
2018-02-14T18:16:46.486Z,95746
2018-02-14T18:22:14.640Z,95744
2018-02-14T18:27:42.793Z,95756
2018-02-14T18:33:10.956Z,95782
2018-02-14T18:38:39.111Z,95777
2018-02-14T18:44:07.271Z,95776
2018-02-14T18:49:36.212Z,95774
2018-02-14T18:55:05.363Z,95774
2018-02-14T19:00:33.558Z,95786
2018-02-14T19:06:02.556Z,95793
2018-02-14T19:11:30.930Z,95803
2018-02-14T19:16:59.870Z,95823
2018-02-14T19:22:28.825Z,95817
2018-02-14T19:27:56.987Z,95813
2018-02-14T19:33:25.371Z,95809
2018-02-14T19:38:53.520Z,95810
2018-02-14T19:44:21.662Z,95808
2018-02-14T19:49:51.897Z,95818
2018-02-14T19:55:20.088Z,95819
2018-02-14T20:00:49.982Z,95817
2018-02-14T20:06:18.153Z,95816
2018-02-14T20:11:46.284Z,95824
2018-02-14T20:17:15.244Z,95818
2018-02-14T20:22:43.601Z,95804
2018-02-14T20:28:11.771Z,95812
2018-02-14T20:33:40.677Z,95825
2018-02-14T20:39:09.505Z,95839
2018-02-14T20:44:37.760Z,95833
2018-02-14T20:50:06.868Z,95838
2018-02-14T20:55:35.247Z,95840
2018-02-14T21:01:03.481Z,95843
2018-02-14T22:31:29.345Z,95782
2018-02-14T22:36:57.494Z,95774
2018-02-14T22:42:25.645Z,95775
2018-02-14T22:47:53.776Z,95772
2018-02-14T22:53:22.203Z,95767
2018-02-14T22:58:50.342Z,95770
2018-02-14T23:04:18.486Z,95766
2018-02-14T23:09:46.649Z,95764
2018-02-14T23:15:14.818Z,95764
2018-02-14T23:20:42.970Z,95764
2018-02-14T23:26:11.860Z,95771
2018-02-14T23:31:40.565Z,95765
2018-02-14T23:37:08.769Z,95766
2018-02-14T23:42:37.801Z,95760
2018-02-14T23:48:06.824Z,95756
2018-02-14T23:53:35.262Z,95736
2018-02-14T23:59:03.537Z,95727
